sensor_id;sensor_type;location;lat;lon;timestamp;temperature;humidity
67868;SHT31;54672;46.096;14.470;2023-04-06T00:00:20;0.73;66.45
67868;SHT31;54672;46.096;14.470;2023-04-06T00:02:46;0.69;67.55
67868;SHT31;54672;46.096;14.470;2023-04-06T00:05:12;0.58;67.50
67868;SHT31;54672;46.096;14.470;2023-04-06T00:07:37;0.48;68.69
67868;SHT31;54672;46.096;14.470;2023-04-06T00:10:03;0.32;69.26
67868;SHT31;54672;46.096;14.470;2023-04-06T00:12:29;0.27;69.56
67868;SHT31;54672;46.096;14.470;2023-04-06T00:14:54;0.21;69.76
67868;SHT31;54672;46.096;14.470;2023-04-06T00:17:20;0.10;70.49
67868;SHT31;54672;46.096;14.470;2023-04-06T00:19:45;0.03;70.78
67868;SHT31;54672;46.096;14.470;2023-04-06T00:22:11;-0.07;70.77
67868;SHT31;54672;46.096;14.470;2023-04-06T00:24:37;-0.14;70.95
67868;SHT31;54672;46.096;14.470;2023-04-06T00:27:02;-0.34;71.56
67868;SHT31;54672;46.096;14.470;2023-04-06T00:29:28;-0.35;71.61
67868;SHT31;54672;46.096;14.470;2023-04-06T00:31:53;-0.30;71.59
67868;SHT31;54672;46.096;14.470;2023-04-06T00:34:19;-0.32;71.32
67868;SHT31;54672;46.096;14.470;2023-04-06T00:36:44;-0.42;72.33
67868;SHT31;54672;46.096;14.470;2023-04-06T00:39:10;-0.49;72.74
67868;SHT31;54672;46.096;14.470;2023-04-06T00:41:35;-0.68;73.33
67868;SHT31;54672;46.096;14.470;2023-04-06T00:44:01;-0.76;73.89
67868;SHT31;54672;46.096;14.470;2023-04-06T00:46:26;-0.70;73.57
67868;SHT31;54672;46.096;14.470;2023-04-06T00:48:53;-0.70;73.18
67868;SHT31;54672;46.096;14.470;2023-04-06T00:51:18;-0.65;73.19
67868;SHT31;54672;46.096;14.470;2023-04-06T00:53:44;-0.70;73.22
67868;SHT31;54672;46.096;14.470;2023-04-06T00:56:10;-0.65;73.26
67868;SHT31;54672;46.096;14.470;2023-04-06T00:58:35;-0.83;74.03
67868;SHT31;54672;46.096;14.470;2023-04-06T01:01:04;-0.92;74.53
67868;SHT31;54672;46.096;14.470;2023-04-06T01:03:29;-0.92;74.54
67868;SHT31;54672;46.096;14.470;2023-04-06T01:05:55;-0.82;73.84
67868;SHT31;54672;46.096;14.470;2023-04-06T01:08:24;-0.82;73.57
67868;SHT31;54672;46.096;14.470;2023-04-06T01:10:49;-0.75;73.19
67868;SHT31;54672;46.096;14.470;2023-04-06T01:13:15;-0.68;72.98
67868;SHT31;54672;46.096;14.470;2023-04-06T01:15:41;-0.69;73.13
67868;SHT31;54672;46.096;14.470;2023-04-06T01:18:10;-0.79;73.83
67868;SHT31;54672;46.096;14.470;2023-04-06T01:20:36;-0.85;73.88
67868;SHT31;54672;46.096;14.470;2023-04-06T01:23:01;-0.95;74.31
67868;SHT31;54672;46.096;14.470;2023-04-06T01:25:27;-1.00;74.53
67868;SHT31;54672;46.096;14.470;2023-04-06T01:27:53;-1.00;74.75
67868;SHT31;54672;46.096;14.470;2023-04-06T01:30:18;-0.97;74.64
67868;SHT31;54672;46.096;14.470;2023-04-06T01:32:44;-0.97;74.42
67868;SHT31;54672;46.096;14.470;2023-04-06T01:35:10;-0.99;74.53
67868;SHT31;54672;46.096;14.470;2023-04-06T01:37:36;-1.03;74.27
67868;SHT31;54672;46.096;14.470;2023-04-06T01:40:02;-0.99;73.95
67868;SHT31;54672;46.096;14.470;2023-04-06T01:42:28;-1.01;74.04
67868;SHT31;54672;46.096;14.470;2023-04-06T01:44:53;-1.07;73.95
67868;SHT31;54672;46.096;14.470;2023-04-06T01:47:19;-1.09;74.18
67868;SHT31;54672;46.096;14.470;2023-04-06T01:49:44;-1.07;73.79
67868;SHT31;54672;46.096;14.470;2023-04-06T01:52:10;-1.09;73.87
67868;SHT31;54672;46.096;14.470;2023-04-06T01:54:35;-1.01;73.24
67868;SHT31;54672;46.096;14.470;2023-04-06T01:57:01;-1.03;73.00
67868;SHT31;54672;46.096;14.470;2023-04-06T01:59:26;-1.04;73.04
67868;SHT31;54672;46.096;14.470;2023-04-06T02:01:52;-1.06;73.28
67868;SHT31;54672;46.096;14.470;2023-04-06T02:04:17;-1.06;73.31
67868;SHT31;54672;46.096;14.470;2023-04-06T02:06:43;-1.04;73.20
67868;SHT31;54672;46.096;14.470;2023-04-06T02:09:08;-1.03;72.86
67868;SHT31;54672;46.096;14.470;2023-04-06T02:11:34;-0.92;72.38
67868;SHT31;54672;46.096;14.470;2023-04-06T02:14:00;-0.95;72.55
67868;SHT31;54672;46.096;14.470;2023-04-06T02:16:26;-0.85;72.13
67868;SHT31;54672;46.096;14.470;2023-04-06T02:18:51;-0.89;72.38
67868;SHT31;54672;46.096;14.470;2023-04-06T02:21:17;-0.88;72.09
67868;SHT31;54672;46.096;14.470;2023-04-06T02:23:48;-1.01;73.20
67868;SHT31;54672;46.096;14.470;2023-04-06T02:26:14;-1.03;73.49
67868;SHT31;54672;46.096;14.470;2023-04-06T02:28:40;-0.99;73.28
67868;SHT31;54672;46.096;14.470;2023-04-06T02:31:05;-0.99;73.39
67868;SHT31;54672;46.096;14.470;2023-04-06T02:33:31;-1.01;73.45
67868;SHT31;54672;46.096;14.470;2023-04-06T02:35:56;-1.07;73.51
67868;SHT31;54672;46.096;14.470;2023-04-06T02:38:22;-1.04;73.54
67868;SHT31;54672;46.096;14.470;2023-04-06T02:40:47;-1.06;73.57
67868;SHT31;54672;46.096;14.470;2023-04-06T02:43:13;-0.95;72.93
67868;SHT31;54672;46.096;14.470;2023-04-06T02:45:38;-1.00;73.11
67868;SHT31;54672;46.096;14.470;2023-04-06T02:48:04;-1.06;73.30
67868;SHT31;54672;46.096;14.470;2023-04-06T02:50:30;-1.10;73.58
67868;SHT31;54672;46.096;14.470;2023-04-06T02:52:55;-1.10;73.55
67868;SHT31;54672;46.096;14.470;2023-04-06T02:55:21;-1.06;73.35
67868;SHT31;54672;46.096;14.470;2023-04-06T02:57:46;-1.11;73.54
67868;SHT31;54672;46.096;14.470;2023-04-06T03:00:12;-1.21;74.16
67868;SHT31;54672;46.096;14.470;2023-04-06T03:02:38;-1.24;74.47
67868;SHT31;54672;46.096;14.470;2023-04-06T03:05:03;-1.37;74.72
67868;SHT31;54672;46.096;14.470;2023-04-06T03:07:29;-1.54;75.63
67868;SHT31;54672;46.096;14.470;2023-04-06T03:09:55;-1.62;76.04
67868;SHT31;54672;46.096;14.470;2023-04-06T03:12:20;-1.58;75.75
67868;SHT31;54672;46.096;14.470;2023-04-06T03:14:46;-1.67;76.21
67868;SHT31;54672;46.096;14.470;2023-04-06T03:17:11;-1.75;76.78
67868;SHT31;54672;46.096;14.470;2023-04-06T03:19:37;-1.83;77.27
67868;SHT31;54672;46.096;14.470;2023-04-06T03:22:02;-1.81;77.23
67868;SHT31;54672;46.096;14.470;2023-04-06T03:24:28;-1.92;78.03
67868;SHT31;54672;46.096;14.470;2023-04-06T03:26:54;-2.01;78.72
67868;SHT31;54672;46.096;14.470;2023-04-06T03:29:20;-2.13;79.97
67868;SHT31;54672;46.096;14.470;2023-04-06T03:31:45;-2.19;80.44
67868;SHT31;54672;46.096;14.470;2023-04-06T03:34:11;-2.29;80.96
67868;SHT31;54672;46.096;14.470;2023-04-06T03:36:36;-2.34;81.22
67868;SHT31;54672;46.096;14.470;2023-04-06T03:39:02;-2.37;81.06
67868;SHT31;54672;46.096;14.470;2023-04-06T03:41:27;-2.34;81.25
67868;SHT31;54672;46.096;14.470;2023-04-06T03:43:53;-2.33;81.23
67868;SHT31;54672;46.096;14.470;2023-04-06T03:46:18;-2.43;81.82
67868;SHT31;54672;46.096;14.470;2023-04-06T03:48:47;-2.46;82.02
67868;SHT31;54672;46.096;14.470;2023-04-06T03:51:13;-2.44;82.10
67868;SHT31;54672;46.096;14.470;2023-04-06T03:53:38;-2.41;82.09
67868;SHT31;54672;46.096;14.470;2023-04-06T03:56:04;-2.40;82.36
67868;SHT31;54672;46.096;14.470;2023-04-06T03:58:30;-2.39;82.57
67868;SHT31;54672;46.096;14.470;2023-04-06T04:00:56;-2.40;82.78
67868;SHT31;54672;46.096;14.470;2023-04-06T04:03:21;-2.41;82.76
67868;SHT31;54672;46.096;14.470;2023-04-06T04:05:49;-2.51;83.10
67868;SHT31;54672;46.096;14.470;2023-04-06T04:08:15;-2.50;83.14
67868;SHT31;54672;46.096;14.470;2023-04-06T04:10:41;-2.54;83.22
67868;SHT31;54672;46.096;14.470;2023-04-06T04:13:06;-2.58;83.56
67868;SHT31;54672;46.096;14.470;2023-04-06T04:15:31;-2.60;84.07
67868;SHT31;54672;46.096;14.470;2023-04-06T04:17:57;-2.61;83.84
67868;SHT31;54672;46.096;14.470;2023-04-06T04:20:22;-2.63;84.02
67868;SHT31;54672;46.096;14.470;2023-04-06T04:22:48;-2.68;84.37
67868;SHT31;54672;46.096;14.470;2023-04-06T04:25:13;-2.67;84.34
67868;SHT31;54672;46.096;14.470;2023-04-06T04:27:39;-2.67;84.32
67868;SHT31;54672;46.096;14.470;2023-04-06T04:30:06;-2.67;84.33
67868;SHT31;54672;46.096;14.470;2023-04-06T04:32:31;-2.72;84.40
67868;SHT31;54672;46.096;14.470;2023-04-06T04:34:57;-2.72;84.34
67868;SHT31;54672;46.096;14.470;2023-04-06T04:37:22;-2.71;84.39
67868;SHT31;54672;46.096;14.470;2023-04-06T04:39:48;-2.68;84.13
67868;SHT31;54672;46.096;14.470;2023-04-06T04:42:13;-2.61;83.71
67868;SHT31;54672;46.096;14.470;2023-04-06T04:44:39;-2.49;83.21
67868;SHT31;54672;46.096;14.470;2023-04-06T04:47:04;-2.19;82.14
67868;SHT31;54672;46.096;14.470;2023-04-06T04:49:30;-2.19;81.66
67868;SHT31;54672;46.096;14.470;2023-04-06T04:51:55;-2.33;82.31
67868;SHT31;54672;46.096;14.470;2023-04-06T04:54:21;-2.30;82.56
67868;SHT31;54672;46.096;14.470;2023-04-06T04:56:46;-2.20;82.26
67868;SHT31;54672;46.096;14.470;2023-04-06T04:59:12;-2.28;81.96
67868;SHT31;54672;46.096;14.470;2023-04-06T05:01:37;-2.05;81.18
67868;SHT31;54672;46.096;14.470;2023-04-06T05:04:03;-1.89;80.10
67868;SHT31;54672;46.096;14.470;2023-04-06T05:06:28;-1.62;78.90
67868;SHT31;54672;46.096;14.470;2023-04-06T05:08:54;-1.43;78.29
67868;SHT31;54672;46.096;14.470;2023-04-06T05:11:20;-0.99;76.50
67868;SHT31;54672;46.096;14.470;2023-04-06T05:13:46;-0.85;76.04
67868;SHT31;54672;46.096;14.470;2023-04-06T05:16:11;-0.72;75.05
67868;SHT31;54672;46.096;14.470;2023-04-06T05:18:37;-0.55;74.98
67868;SHT31;54672;46.096;14.470;2023-04-06T05:21:03;-0.18;73.91
67868;SHT31;54672;46.096;14.470;2023-04-06T05:23:28;-0.07;73.48
67868;SHT31;54672;46.096;14.470;2023-04-06T05:25:54;0.72;70.63
67868;SHT31;54672;46.096;14.470;2023-04-06T05:28:20;0.52;71.95
67868;SHT31;54672;46.096;14.470;2023-04-06T05:30:46;1.13;70.27
67868;SHT31;54672;46.096;14.470;2023-04-06T05:33:12;1.94;67.74
67868;SHT31;54672;46.096;14.470;2023-04-06T05:35:37;1.29;68.64
67868;SHT31;54672;46.096;14.470;2023-04-06T05:38:05;1.22;69.29
67868;SHT31;54672;46.096;14.470;2023-04-06T05:40:31;1.92;67.66
67868;SHT31;54672;46.096;14.470;2023-04-06T05:42:56;3.09;63.73
67868;SHT31;54672;46.096;14.470;2023-04-06T05:45:22;4.75;60.05
67868;SHT31;54672;46.096;14.470;2023-04-06T05:47:48;5.56;56.17
67868;SHT31;54672;46.096;14.470;2023-04-06T05:50:15;6.48;53.04
67868;SHT31;54672;46.096;14.470;2023-04-06T05:52:40;5.76;53.68
67868;SHT31;54672;46.096;14.470;2023-04-06T05:55:08;5.89;54.30
67868;SHT31;54672;46.096;14.470;2023-04-06T05:57:34;7.12;51.75
67868;SHT31;54672;46.096;14.470;2023-04-06T06:00:00;8.05;48.83
67868;SHT31;54672;46.096;14.470;2023-04-06T06:02:26;9.04;46.15
67868;SHT31;54672;46.096;14.470;2023-04-06T06:04:52;6.55;49.91
67868;SHT31;54672;46.096;14.470;2023-04-06T06:07:17;7.59;49.51
67868;SHT31;54672;46.096;14.470;2023-04-06T06:09:43;9.24;46.16
67868;SHT31;54672;46.096;14.470;2023-04-06T06:12:08;10.06;43.85
67868;SHT31;54672;46.096;14.470;2023-04-06T06:14:34;10.48;42.46
67868;SHT31;54672;46.096;14.470;2023-04-06T06:17:00;10.75;42.62
67868;SHT31;54672;46.096;14.470;2023-04-06T06:19:25;10.88;41.55
67868;SHT31;54672;46.096;14.470;2023-04-06T06:21:51;11.49;40.40
67868;SHT31;54672;46.096;14.470;2023-04-06T06:24:16;11.91;39.84
67868;SHT31;54672;46.096;14.470;2023-04-06T06:26:42;11.19;40.60
67868;SHT31;54672;46.096;14.470;2023-04-06T06:29:08;10.64;41.81
67868;SHT31;54672;46.096;14.470;2023-04-06T06:31:34;11.22;41.34
67868;SHT31;54672;46.096;14.470;2023-04-06T06:34:00;11.57;40.79
67868;SHT31;54672;46.096;14.470;2023-04-06T06:36:27;11.50;39.85
67868;SHT31;54672;46.096;14.470;2023-04-06T06:38:53;11.77;39.42
67868;SHT31;54672;46.096;14.470;2023-04-06T06:41:18;12.04;39.37
67868;SHT31;54672;46.096;14.470;2023-04-06T06:43:44;12.24;39.25
67868;SHT31;54672;46.096;14.470;2023-04-06T06:46:09;12.29;38.94
67868;SHT31;54672;46.096;14.470;2023-04-06T06:48:35;11.81;40.12
67868;SHT31;54672;46.096;14.470;2023-04-06T06:51:01;11.66;39.91
67868;SHT31;54672;46.096;14.470;2023-04-06T06:53:26;12.57;38.82
67868;SHT31;54672;46.096;14.470;2023-04-06T06:55:52;10.71;40.72
67868;SHT31;54672;46.096;14.470;2023-04-06T06:58:18;9.41;44.57
67868;SHT31;54672;46.096;14.470;2023-04-06T07:00:45;11.06;42.21
67868;SHT31;54672;46.096;14.470;2023-04-06T07:03:15;12.38;38.73
67868;SHT31;54672;46.096;14.470;2023-04-06T07:05:49;12.94;37.77
67868;SHT31;54672;46.096;14.470;2023-04-06T07:08:19;12.60;37.69
67868;SHT31;54672;46.096;14.470;2023-04-06T07:10:44;13.92;35.59
67868;SHT31;54672;46.096;14.470;2023-04-06T07:13:10;10.37;39.44
67868;SHT31;54672;46.096;14.470;2023-04-06T07:15:35;7.20;45.21
67868;SHT31;54672;46.096;14.470;2023-04-06T07:18:02;8.11;44.01
67868;SHT31;54672;46.096;14.470;2023-04-06T07:20:27;6.98;46.40
67868;SHT31;54672;46.096;14.470;2023-04-06T07:22:53;8.01;45.28
67868;SHT31;54672;46.096;14.470;2023-04-06T07:25:19;10.86;41.37
67868;SHT31;54672;46.096;14.470;2023-04-06T07:27:44;12.46;38.28
67868;SHT31;54672;46.096;14.470;2023-04-06T07:30:11;8.48;43.37
67868;SHT31;54672;46.096;14.470;2023-04-06T07:32:36;8.04;47.82
67868;SHT31;54672;46.096;14.470;2023-04-06T07:35:02;9.44;44.56
67868;SHT31;54672;46.096;14.470;2023-04-06T07:37:28;8.93;46.38
67868;SHT31;54672;46.096;14.470;2023-04-06T07:39:54;10.77;43.32
67868;SHT31;54672;46.096;14.470;2023-04-06T07:42:19;8.73;45.53
67868;SHT31;54672;46.096;14.470;2023-04-06T07:44:45;9.41;43.30
67868;SHT31;54672;46.096;14.470;2023-04-06T07:47:10;9.55;41.09
67868;SHT31;54672;46.096;14.470;2023-04-06T07:49:36;9.18;41.95
67868;SHT31;54672;46.096;14.470;2023-04-06T07:52:02;9.86;42.63
67868;SHT31;54672;46.096;14.470;2023-04-06T07:54:28;9.42;41.13
67868;SHT31;54672;46.096;14.470;2023-04-06T07:56:54;9.27;40.16
67868;SHT31;54672;46.096;14.470;2023-04-06T07:59:19;9.65;38.41
67868;SHT31;54672;46.096;14.470;2023-04-06T08:01:45;11.97;36.92
67868;SHT31;54672;46.096;14.470;2023-04-06T08:04:10;11.50;35.68
67868;SHT31;54672;46.096;14.470;2023-04-06T08:06:37;11.80;35.02
67868;SHT31;54672;46.096;14.470;2023-04-06T08:09:02;11.71;35.04
67868;SHT31;54672;46.096;14.470;2023-04-06T08:11:28;11.05;36.67
67868;SHT31;54672;46.096;14.470;2023-04-06T08:13:54;11.12;35.55
67868;SHT31;54672;46.096;14.470;2023-04-06T08:16:22;11.09;36.02
67868;SHT31;54672;46.096;14.470;2023-04-06T08:18:47;10.20;37.68
67868;SHT31;54672;46.096;14.470;2023-04-06T08:21:13;10.29;38.12
67868;SHT31;54672;46.096;14.470;2023-04-06T08:23:38;10.10;37.86
67868;SHT31;54672;46.096;14.470;2023-04-06T08:26:04;10.10;37.90
67868;SHT31;54672;46.096;14.470;2023-04-06T08:28:30;9.72;38.76
67868;SHT31;54672;46.096;14.470;2023-04-06T08:30:56;9.32;38.61
67868;SHT31;54672;46.096;14.470;2023-04-06T08:33:21;9.56;39.28
67868;SHT31;54672;46.096;14.470;2023-04-06T08:35:47;10.57;38.28
67868;SHT31;54672;46.096;14.470;2023-04-06T08:38:12;11.18;35.87
67868;SHT31;54672;46.096;14.470;2023-04-06T08:40:38;11.63;35.24
67868;SHT31;54672;46.096;14.470;2023-04-06T08:43:08;12.25;34.08
67868;SHT31;54672;46.096;14.470;2023-04-06T08:45:34;13.57;31.96
67868;SHT31;54672;46.096;14.470;2023-04-06T08:48:02;11.29;34.63
67868;SHT31;54672;46.096;14.470;2023-04-06T08:50:29;11.69;34.47
67868;SHT31;54672;46.096;14.470;2023-04-06T08:52:55;11.84;34.43
67868;SHT31;54672;46.096;14.470;2023-04-06T08:55:21;11.30;35.76
67868;SHT31;54672;46.096;14.470;2023-04-06T08:57:47;10.77;36.68
67868;SHT31;54672;46.096;14.470;2023-04-06T09:00:14;11.80;35.54
67868;SHT31;54672;46.096;14.470;2023-04-06T09:02:43;12.49;34.15
67868;SHT31;54672;46.096;14.470;2023-04-06T09:05:10;11.64;34.46
67868;SHT31;54672;46.096;14.470;2023-04-06T09:07:36;10.17;36.23
67868;SHT31;54672;46.096;14.470;2023-04-06T09:10:03;9.23;39.45
67868;SHT31;54672;46.096;14.470;2023-04-06T09:12:30;8.88;39.82
67868;SHT31;54672;46.096;14.470;2023-04-06T09:14:57;8.50;40.62
67868;SHT31;54672;46.096;14.470;2023-04-06T09:17:28;8.34;40.45
67868;SHT31;54672;46.096;14.470;2023-04-06T09:19:53;8.14;40.34
67868;SHT31;54672;46.096;14.470;2023-04-06T09:22:19;8.15;40.48
67868;SHT31;54672;46.096;14.470;2023-04-06T09:24:47;8.05;41.68
67868;SHT31;54672;46.096;14.470;2023-04-06T09:27:13;8.08;41.95
67868;SHT31;54672;46.096;14.470;2023-04-06T09:29:40;8.24;41.60
67868;SHT31;54672;46.096;14.470;2023-04-06T09:32:07;8.18;41.80
67868;SHT31;54672;46.096;14.470;2023-04-06T09:34:39;8.41;42.78
67868;SHT31;54672;46.096;14.470;2023-04-06T09:37:15;8.75;40.98
67868;SHT31;54672;46.096;14.470;2023-04-06T09:39:41;8.87;41.27
67868;SHT31;54672;46.096;14.470;2023-04-06T09:42:06;8.69;40.46
67868;SHT31;54672;46.096;14.470;2023-04-06T09:44:32;8.91;40.30
67868;SHT31;54672;46.096;14.470;2023-04-06T09:46:57;8.83;40.44
67868;SHT31;54672;46.096;14.470;2023-04-06T09:49:24;8.59;40.61
67868;SHT31;54672;46.096;14.470;2023-04-06T09:52:12;8.21;42.24
67868;SHT31;54672;46.096;14.470;2023-04-06T09:54:40;8.08;42.65
67868;SHT31;54672;46.096;14.470;2023-04-06T10:00:06;8.75;41.21
67868;SHT31;54672;46.096;14.470;2023-04-06T10:05:38;9.55;39.97
67868;SHT31;54672;46.096;14.470;2023-04-06T10:08:08;9.31;39.55
67868;SHT31;54672;46.096;14.470;2023-04-06T10:10:35;9.27;40.59
67868;SHT31;54672;46.096;14.470;2023-04-06T10:13:01;9.37;40.84
67868;SHT31;54672;46.096;14.470;2023-04-06T10:15:30;9.61;40.00
67868;SHT31;54672;46.096;14.470;2023-04-06T10:17:59;9.92;39.86
67868;SHT31;54672;46.096;14.470;2023-04-06T10:20:35;9.68;38.91
67868;SHT31;54672;46.096;14.470;2023-04-06T10:25:33;8.66;40.06
67868;SHT31;54672;46.096;14.470;2023-04-06T10:28:05;8.93;40.39
67868;SHT31;54672;46.096;14.470;2023-04-06T10:30:32;9.08;39.87
67868;SHT31;54672;46.096;14.470;2023-04-06T10:32:58;8.94;39.63
67868;SHT31;54672;46.096;14.470;2023-04-06T10:35:24;9.32;40.17
67868;SHT31;54672;46.096;14.470;2023-04-06T10:38:04;9.44;38.82
67868;SHT31;54672;46.096;14.470;2023-04-06T10:40:29;9.72;39.30
67868;SHT31;54672;46.096;14.470;2023-04-06T10:43:10;9.52;39.37
67868;SHT31;54672;46.096;14.470;2023-04-06T10:45:36;9.46;38.46
67868;SHT31;54672;46.096;14.470;2023-04-06T10:48:15;9.44;39.58
67868;SHT31;54672;46.096;14.470;2023-04-06T10:50:53;8.91;39.13
67868;SHT31;54672;46.096;14.470;2023-04-06T10:53:26;8.59;39.45
67868;SHT31;54672;46.096;14.470;2023-04-06T10:55:54;8.87;39.11
67868;SHT31;54672;46.096;14.470;2023-04-06T10:58:20;8.80;41.17
67868;SHT31;54672;46.096;14.470;2023-04-06T11:00:49;8.88;40.22
67868;SHT31;54672;46.096;14.470;2023-04-06T11:03:15;9.54;40.42
67868;SHT31;54672;46.096;14.470;2023-04-06T11:05:49;9.96;38.59
67868;SHT31;54672;46.096;14.470;2023-04-06T11:08:32;10.18;38.59
67868;SHT31;54672;46.096;14.470;2023-04-06T11:11:08;10.44;37.62
67868;SHT31;54672;46.096;14.470;2023-04-06T11:13:54;10.38;36.71
67868;SHT31;54672;46.096;14.470;2023-04-06T11:16:21;10.43;36.48
67868;SHT31;54672;46.096;14.470;2023-04-06T11:21:35;10.88;37.01
67868;SHT31;54672;46.096;14.470;2023-04-06T11:26:44;10.50;36.78
67868;SHT31;54672;46.096;14.470;2023-04-06T11:29:12;10.41;36.74
67868;SHT31;54672;46.096;14.470;2023-04-06T11:31:40;10.61;37.43
67868;SHT31;54672;46.096;14.470;2023-04-06T11:34:22;10.98;37.23
67868;SHT31;54672;46.096;14.470;2023-04-06T11:36:54;10.94;36.53
67868;SHT31;54672;46.096;14.470;2023-04-06T11:39:21;10.74;36.75
67868;SHT31;54672;46.096;14.470;2023-04-06T11:41:59;10.68;35.92
67868;SHT31;54672;46.096;14.470;2023-04-06T11:44:36;10.63;36.53
67868;SHT31;54672;46.096;14.470;2023-04-06T11:47:03;10.65;36.19
67868;SHT31;54672;46.096;14.470;2023-04-06T11:49:33;10.85;36.65
67868;SHT31;54672;46.096;14.470;2023-04-06T11:52:00;11.08;36.23
67868;SHT31;54672;46.096;14.470;2023-04-06T11:54:33;11.53;37.06
67868;SHT31;54672;46.096;14.470;2023-04-06T11:56:59;11.78;35.13
67868;SHT31;54672;46.096;14.470;2023-04-06T11:59:26;11.49;35.38
67868;SHT31;54672;46.096;14.470;2023-04-06T12:01:52;11.09;36.55
67868;SHT31;54672;46.096;14.470;2023-04-06T12:04:18;11.05;35.67
67868;SHT31;54672;46.096;14.470;2023-04-06T12:06:44;11.06;35.66
67868;SHT31;54672;46.096;14.470;2023-04-06T12:09:10;10.94;35.80
67868;SHT31;54672;46.096;14.470;2023-04-06T12:11:35;11.20;37.31
67868;SHT31;54672;46.096;14.470;2023-04-06T12:14:01;11.35;35.78
67868;SHT31;54672;46.096;14.470;2023-04-06T12:16:30;11.44;34.88
67868;SHT31;54672;46.096;14.470;2023-04-06T12:18:56;11.60;35.12
67868;SHT31;54672;46.096;14.470;2023-04-06T12:21:22;11.42;35.27
67868;SHT31;54672;46.096;14.470;2023-04-06T12:23:47;11.39;34.77
67868;SHT31;54672;46.096;14.470;2023-04-06T12:26:13;11.56;34.90
67868;SHT31;54672;46.096;14.470;2023-04-06T12:28:38;11.69;34.51
67868;SHT31;54672;46.096;14.470;2023-04-06T12:31:04;12.07;34.27
67868;SHT31;54672;46.096;14.470;2023-04-06T12:33:29;12.18;33.62
67868;SHT31;54672;46.096;14.470;2023-04-06T12:35:55;12.26;33.95
67868;SHT31;54672;46.096;14.470;2023-04-06T12:38:21;12.35;33.89
67868;SHT31;54672;46.096;14.470;2023-04-06T12:40:47;12.36;33.10
67868;SHT31;54672;46.096;14.470;2023-04-06T12:43:12;12.18;33.49
67868;SHT31;54672;46.096;14.470;2023-04-06T12:45:39;11.78;33.86
67868;SHT31;54672;46.096;14.470;2023-04-06T12:48:06;11.90;33.89
67868;SHT31;54672;46.096;14.470;2023-04-06T12:50:31;11.88;33.93
67868;SHT31;54672;46.096;14.470;2023-04-06T12:52:57;11.87;33.74
67868;SHT31;54672;46.096;14.470;2023-04-06T12:55:22;12.07;34.46
67868;SHT31;54672;46.096;14.470;2023-04-06T12:57:48;11.98;34.41
67868;SHT31;54672;46.096;14.470;2023-04-06T13:00:14;12.04;33.88
67868;SHT31;54672;46.096;14.470;2023-04-06T13:02:40;11.95;33.88
67868;SHT31;54672;46.096;14.470;2023-04-06T13:05:12;11.95;33.62
67868;SHT31;54672;46.096;14.470;2023-04-06T13:07:37;11.87;33.88
67868;SHT31;54672;46.096;14.470;2023-04-06T13:10:03;11.88;33.27
67868;SHT31;54672;46.096;14.470;2023-04-06T13:12:29;12.11;34.32
67868;SHT31;54672;46.096;14.470;2023-04-06T13:14:54;12.31;33.25
67868;SHT31;54672;46.096;14.470;2023-04-06T13:17:20;12.25;33.03
67868;SHT31;54672;46.096;14.470;2023-04-06T13:19:46;12.35;32.91
67868;SHT31;54672;46.096;14.470;2023-04-06T13:22:11;12.46;32.83
67868;SHT31;54672;46.096;14.470;2023-04-06T13:24:37;12.53;32.82
67868;SHT31;54672;46.096;14.470;2023-04-06T13:27:02;12.69;32.92
67868;SHT31;54672;46.096;14.470;2023-04-06T13:29:28;12.57;33.28
67868;SHT31;54672;46.096;14.470;2023-04-06T13:31:53;12.73;33.05
67868;SHT31;54672;46.096;14.470;2023-04-06T13:34:19;12.80;32.86
67868;SHT31;54672;46.096;14.470;2023-04-06T13:36:44;12.48;32.71
67868;SHT31;54672;46.096;14.470;2023-04-06T13:39:10;12.39;33.65
67868;SHT31;54672;46.096;14.470;2023-04-06T13:41:36;12.60;33.86
67868;SHT31;54672;46.096;14.470;2023-04-06T13:44:01;12.57;33.42
67868;SHT31;54672;46.096;14.470;2023-04-06T13:46:27;12.63;33.92
67868;SHT31;54672;46.096;14.470;2023-04-06T13:48:53;12.59;33.09
67868;SHT31;54672;46.096;14.470;2023-04-06T13:51:18;12.45;33.45
67868;SHT31;54672;46.096;14.470;2023-04-06T13:53:44;12.57;32.37
67868;SHT31;54672;46.096;14.470;2023-04-06T13:56:09;12.63;33.03
67868;SHT31;54672;46.096;14.470;2023-04-06T13:58:35;12.57;33.10
67868;SHT31;54672;46.096;14.470;2023-04-06T14:01:07;12.57;32.90
67868;SHT31;54672;46.096;14.470;2023-04-06T14:03:35;12.72;32.99
67868;SHT31;54672;46.096;14.470;2023-04-06T14:06:01;12.87;33.67
67868;SHT31;54672;46.096;14.470;2023-04-06T14:08:26;13.06;33.39
67868;SHT31;54672;46.096;14.470;2023-04-06T14:10:52;13.11;33.04
67868;SHT31;54672;46.096;14.470;2023-04-06T14:13:19;13.04;31.88
67868;SHT31;54672;46.096;14.470;2023-04-06T14:15:44;12.89;33.07
67868;SHT31;54672;46.096;14.470;2023-04-06T14:18:10;12.96;33.05
67868;SHT31;54672;46.096;14.470;2023-04-06T14:20:36;13.08;31.69
67868;SHT31;54672;46.096;14.470;2023-04-06T14:23:02;12.65;32.93
67868;SHT31;54672;46.096;14.470;2023-04-06T14:25:28;12.38;33.17
67868;SHT31;54672;46.096;14.470;2023-04-06T14:27:54;12.72;32.91
67868;SHT31;54672;46.096;14.470;2023-04-06T14:30:19;12.90;32.87
67868;SHT31;54672;46.096;14.470;2023-04-06T14:32:45;12.60;33.22
67868;SHT31;54672;46.096;14.470;2023-04-06T14:35:10;12.99;32.67
67868;SHT31;54672;46.096;14.470;2023-04-06T14:37:37;12.99;32.65
67868;SHT31;54672;46.096;14.470;2023-04-06T14:40:03;12.99;32.27
67868;SHT31;54672;46.096;14.470;2023-04-06T14:42:29;12.93;32.79
67868;SHT31;54672;46.096;14.470;2023-04-06T14:44:54;13.00;32.67
67868;SHT31;54672;46.096;14.470;2023-04-06T14:47:20;13.10;32.22
67868;SHT31;54672;46.096;14.470;2023-04-06T14:49:48;13.27;32.89
67868;SHT31;54672;46.096;14.470;2023-04-06T14:52:14;13.00;31.83
67868;SHT31;54672;46.096;14.470;2023-04-06T14:54:39;13.10;31.39
67868;SHT31;54672;46.096;14.470;2023-04-06T14:57:05;13.11;31.97
67868;SHT31;54672;46.096;14.470;2023-04-06T14:59:30;13.03;33.34
67868;SHT31;54672;46.096;14.470;2023-04-06T15:01:58;13.02;33.08
67868;SHT31;54672;46.096;14.470;2023-04-06T15:04:25;13.08;33.24
67868;SHT31;54672;46.096;14.470;2023-04-06T15:06:52;13.15;33.25
67868;SHT31;54672;46.096;14.470;2023-04-06T15:09:17;13.04;32.52
67868;SHT31;54672;46.096;14.470;2023-04-06T15:11:43;13.07;33.12
67868;SHT31;54672;46.096;14.470;2023-04-06T15:14:08;13.10;33.03
67868;SHT31;54672;46.096;14.470;2023-04-06T15:16:34;13.10;32.35
67868;SHT31;54672;46.096;14.470;2023-04-06T15:19:00;13.06;33.41
67868;SHT31;54672;46.096;14.470;2023-04-06T15:21:26;12.99;32.88
67868;SHT31;54672;46.096;14.470;2023-04-06T15:23:52;13.02;33.32
67868;SHT31;54672;46.096;14.470;2023-04-06T15:26:17;12.99;33.46
67868;SHT31;54672;46.096;14.470;2023-04-06T15:28:43;12.87;33.11